sensor_id;sensor_type;location;lat;lon;timestamp;P1;durP1;ratioP1;P2;durP2;ratioP2
56911;SDS011;42800;53.928;27.662;2022-09-12T00:01:56;5.95;;;2.85;;
56911;SDS011;42800;53.928;27.662;2022-09-12T00:04:22;3.28;;;2.97;;
56911;SDS011;42800;53.928;27.662;2022-09-12T00:06:49;4.60;;;3.75;;
56911;SDS011;42800;53.928;27.662;2022-09-12T00:09:16;3.70;;;3.40;;
56911;SDS011;42800;53.928;27.662;2022-09-12T00:11:42;4.03;;;2.97;;
56911;SDS011;42800;53.928;27.662;2022-09-12T00:14:12;3.97;;;3.38;;
56911;SDS011;42800;53.928;27.662;2022-09-12T00:16:40;5.13;;;3.95;;
56911;SDS011;42800;53.928;27.662;2022-09-12T00:19:07;5.13;;;3.88;;
56911;SDS011;42800;53.928;27.662;2022-09-12T00:21:34;4.68;;;4.10;;
56911;SDS011;42800;53.928;27.662;2022-09-12T00:24:02;5.43;;;4.00;;
56911;SDS011;42800;53.928;27.662;2022-09-12T00:26:29;5.03;;;4.53;;
56911;SDS011;42800;53.928;27.662;2022-09-12T00:28:56;5.57;;;4.30;;
56911;SDS011;42800;53.928;27.662;2022-09-12T00:31:23;5.75;;;4.68;;
56911;SDS011;42800;53.928;27.662;2022-09-12T00:33:50;5.07;;;3.88;;
56911;SDS011;42800;53.928;27.662;2022-09-12T00:36:18;6.80;;;4.78;;
56911;SDS011;42800;53.928;27.662;2022-09-12T00:38:46;5.65;;;4.45;;
56911;SDS011;42800;53.928;27.662;2022-09-12T00:41:16;9.25;;;4.72;;
56911;SDS011;42800;53.928;27.662;2022-09-12T00:43:44;6.22;;;4.93;;
56911;SDS011;42800;53.928;27.662;2022-09-12T00:46:13;6.60;;;4.38;;
56911;SDS011;42800;53.928;27.662;2022-09-12T00:48:51;6.22;;;4.53;;
56911;SDS011;42800;53.928;27.662;2022-09-12T00:51:21;8.35;;;4.38;;
56911;SDS011;42800;53.928;27.662;2022-09-12T00:53:48;6.60;;;4.85;;
56911;SDS011;42800;53.928;27.662;2022-09-12T00:56:19;6.47;;;5.45;;
56911;SDS011;42800;53.928;27.662;2022-09-12T00:58:48;6.03;;;4.95;;
56911;SDS011;42800;53.928;27.662;2022-09-12T01:01:20;7.20;;;4.97;;
56911;SDS011;42800;53.928;27.662;2022-09-12T01:03:46;13.50;;;5.68;;
56911;SDS011;42800;53.928;27.662;2022-09-12T01:06:14;6.50;;;4.75;;
56911;SDS011;42800;53.928;27.662;2022-09-12T01:08:42;6.25;;;4.93;;
56911;SDS011;42800;53.928;27.662;2022-09-12T01:11:11;5.57;;;4.43;;
56911;SDS011;42800;53.928;27.662;2022-09-12T01:13:38;4.85;;;4.18;;
56911;SDS011;42800;53.928;27.662;2022-09-12T01:16:05;6.57;;;4.70;;
56911;SDS011;42800;53.928;27.662;2022-09-12T01:18:34;11.23;;;5.28;;
56911;SDS011;42800;53.928;27.662;2022-09-12T01:21:15;6.43;;;4.93;;
56911;SDS011;42800;53.928;27.662;2022-09-12T01:23:53;5.72;;;4.65;;
56911;SDS011;42800;53.928;27.662;2022-09-12T01:29:49;7.65;;;4.65;;
56911;SDS011;42800;53.928;27.662;2022-09-12T01:32:30;6.75;;;4.80;;
56911;SDS011;42800;53.928;27.662;2022-09-12T01:35:06;6.57;;;5.28;;
56911;SDS011;42800;53.928;27.662;2022-09-12T01:37:45;8.00;;;5.57;;
56911;SDS011;42800;53.928;27.662;2022-09-12T01:40:19;6.50;;;5.10;;
56911;SDS011;42800;53.928;27.662;2022-09-12T01:42:52;8.27;;;6.55;;
56911;SDS011;42800;53.928;27.662;2022-09-12T01:45:28;7.35;;;5.40;;
56911;SDS011;42800;53.928;27.662;2022-09-12T01:48:02;6.68;;;5.53;;
56911;SDS011;42800;53.928;27.662;2022-09-12T01:50:39;8.40;;;5.80;;
56911;SDS011;42800;53.928;27.662;2022-09-12T01:53:12;6.30;;;4.67;;
56911;SDS011;42800;53.928;27.662;2022-09-12T01:55:44;9.95;;;6.22;;
56911;SDS011;42800;53.928;27.662;2022-09-12T01:58:15;7.88;;;5.38;;
56911;SDS011;42800;53.928;27.662;2022-09-12T02:00:45;10.98;;;7.10;;
56911;SDS011;42800;53.928;27.662;2022-09-12T02:03:15;17.75;;;5.97;;
56911;SDS011;42800;53.928;27.662;2022-09-12T02:05:46;7.65;;;5.75;;
56911;SDS011;42800;53.928;27.662;2022-09-12T02:08:17;12.30;;;5.57;;
56911;SDS011;42800;53.928;27.662;2022-09-12T02:10:48;8.25;;;6.30;;
56911;SDS011;42800;53.928;27.662;2022-09-12T02:13:20;8.35;;;5.72;;
56911;SDS011;42800;53.928;27.662;2022-09-12T02:15:52;9.73;;;5.65;;
56911;SDS011;42800;53.928;27.662;2022-09-12T02:18:23;7.80;;;6.00;;
56911;SDS011;42800;53.928;27.662;2022-09-12T02:20:53;15.55;;;5.93;;
56911;SDS011;42800;53.928;27.662;2022-09-12T02:23:21;14.68;;;6.07;;
56911;SDS011;42800;53.928;27.662;2022-09-12T02:25:51;6.45;;;5.75;;
56911;SDS011;42800;53.928;27.662;2022-09-12T02:28:22;14.43;;;5.22;;
56911;SDS011;42800;53.928;27.662;2022-09-12T02:30:55;14.93;;;5.85;;
56911;SDS011;42800;53.928;27.662;2022-09-12T02:33:31;15.38;;;5.65;;
56911;SDS011;42800;53.928;27.662;2022-09-12T02:36:05;6.85;;;4.95;;
56911;SDS011;42800;53.928;27.662;2022-09-12T02:38:39;11.18;;;6.05;;
56911;SDS011;42800;53.928;27.662;2022-09-12T02:41:09;13.88;;;5.93;;
56911;SDS011;42800;53.928;27.662;2022-09-12T02:43:38;11.93;;;6.10;;
56911;SDS011;42800;53.928;27.662;2022-09-12T02:46:05;13.60;;;5.25;;
56911;SDS011;42800;53.928;27.662;2022-09-12T02:48:39;14.05;;;5.53;;
56911;SDS011;42800;53.928;27.662;2022-09-12T02:51:08;6.72;;;4.75;;
56911;SDS011;42800;53.928;27.662;2022-09-12T02:53:34;5.70;;;4.45;;
56911;SDS011;42800;53.928;27.662;2022-09-12T02:56:01;6.55;;;4.97;;
56911;SDS011;42800;53.928;27.662;2022-09-12T02:58:30;5.72;;;4.45;;
56911;SDS011;42800;53.928;27.662;2022-09-12T03:00:59;5.43;;;4.30;;
56911;SDS011;42800;53.928;27.662;2022-09-12T03:03:41;5.00;;;4.22;;
56911;SDS011;42800;53.928;27.662;2022-09-12T03:06:21;6.95;;;4.25;;
56911;SDS011;42800;53.928;27.662;2022-09-12T03:08:56;5.40;;;3.85;;
56911;SDS011;42800;53.928;27.662;2022-09-12T03:14:30;5.50;;;3.65;;
56911;SDS011;42800;53.928;27.662;2022-09-12T03:17:12;6.60;;;3.83;;
56911;SDS011;42800;53.928;27.662;2022-09-12T03:19:49;9.18;;;4.07;;
56911;SDS011;42800;53.928;27.662;2022-09-12T03:22:25;4.93;;;3.78;;
56911;SDS011;42800;53.928;27.662;2022-09-12T03:24:57;5.20;;;4.00;;
56911;SDS011;42800;53.928;27.662;2022-09-12T03:27:31;6.28;;;4.20;;
56911;SDS011;42800;53.928;27.662;2022-09-12T03:30:02;5.65;;;3.92;;
56911;SDS011;42800;53.928;27.662;2022-09-12T03:32:40;6.65;;;3.92;;
56911;SDS011;42800;53.928;27.662;2022-09-12T03:35:08;8.73;;;3.67;;
56911;SDS011;42800;53.928;27.662;2022-09-12T03:37:35;5.93;;;4.63;;
56911;SDS011;42800;53.928;27.662;2022-09-12T03:40:01;10.57;;;4.35;;
56911;SDS011;42800;53.928;27.662;2022-09-12T03:42:28;10.90;;;4.72;;
56911;SDS011;42800;53.928;27.662;2022-09-12T03:44:54;7.03;;;4.65;;
56911;SDS011;42800;53.928;27.662;2022-09-12T03:47:20;7.53;;;4.20;;
56911;SDS011;42800;53.928;27.662;2022-09-12T03:49:46;8.13;;;4.40;;
56911;SDS011;42800;53.928;27.662;2022-09-12T03:52:13;7.93;;;4.72;;
56911;SDS011;42800;53.928;27.662;2022-09-12T03:54:39;17.20;;;5.15;;
56911;SDS011;42800;53.928;27.662;2022-09-12T03:57:07;17.00;;;5.50;;
56911;SDS011;42800;53.928;27.662;2022-09-12T03:59:33;12.38;;;5.78;;
56911;SDS011;42800;53.928;27.662;2022-09-12T04:01:59;9.98;;;5.57;;
56911;SDS011;42800;53.928;27.662;2022-09-12T04:04:26;8.65;;;5.18;;
56911;SDS011;42800;53.928;27.662;2022-09-12T04:06:52;11.60;;;6.57;;
56911;SDS011;42800;53.928;27.662;2022-09-12T04:09:19;8.88;;;5.40;;
56911;SDS011;42800;53.928;27.662;2022-09-12T04:11:45;7.22;;;5.47;;
56911;SDS011;42800;53.928;27.662;2022-09-12T04:14:11;13.27;;;6.45;;
56911;SDS011;42800;53.928;27.662;2022-09-12T04:16:37;10.60;;;5.95;;
56911;SDS011;42800;53.928;27.662;2022-09-12T04:19:04;11.55;;;5.90;;
56911;SDS011;42800;53.928;27.662;2022-09-12T04:21:30;11.45;;;6.28;;
56911;SDS011;42800;53.928;27.662;2022-09-12T04:23:56;11.10;;;6.07;;
56911;SDS011;42800;53.928;27.662;2022-09-12T04:26:23;12.80;;;6.20;;
56911;SDS011;42800;53.928;27.662;2022-09-12T04:28:51;9.82;;;5.07;;
56911;SDS011;42800;53.928;27.662;2022-09-12T04:31:18;13.00;;;5.68;;
56911;SDS011;42800;53.928;27.662;2022-09-12T04:33:47;6.57;;;4.60;;
56911;SDS011;42800;53.928;27.662;2022-09-12T04:36:17;13.48;;;5.38;;
56911;SDS011;42800;53.928;27.662;2022-09-12T04:38:45;12.93;;;5.47;;
56911;SDS011;42800;53.928;27.662;2022-09-12T04:41:12;7.45;;;4.80;;
56911;SDS011;42800;53.928;27.662;2022-09-12T04:43:41;8.07;;;5.20;;
56911;SDS011;42800;53.928;27.662;2022-09-12T04:46:08;8.18;;;5.45;;
56911;SDS011;42800;53.928;27.662;2022-09-12T04:48:35;20.50;;;6.10;;
56911;SDS011;42800;53.928;27.662;2022-09-12T04:51:05;20.55;;;5.55;;
56911;SDS011;42800;53.928;27.662;2022-09-12T04:53:32;16.08;;;5.75;;
56911;SDS011;42800;53.928;27.662;2022-09-12T04:56:00;20.25;;;6.40;;
56911;SDS011;42800;53.928;27.662;2022-09-12T04:58:27;13.13;;;6.20;;
56911;SDS011;42800;53.928;27.662;2022-09-12T05:00:54;11.70;;;5.75;;
56911;SDS011;42800;53.928;27.662;2022-09-12T05:03:20;9.07;;;5.10;;
56911;SDS011;42800;53.928;27.662;2022-09-12T05:05:46;16.85;;;5.10;;
56911;SDS011;42800;53.928;27.662;2022-09-12T05:08:12;7.00;;;4.57;;
56911;SDS011;42800;53.928;27.662;2022-09-12T05:10:38;7.60;;;5.07;;
56911;SDS011;42800;53.928;27.662;2022-09-12T05:13:05;12.02;;;4.85;;
56911;SDS011;42800;53.928;27.662;2022-09-12T05:15:31;7.70;;;5.57;;
56911;SDS011;42800;53.928;27.662;2022-09-12T05:17:59;6.60;;;4.95;;
56911;SDS011;42800;53.928;27.662;2022-09-12T05:20:25;11.73;;;5.57;;
56911;SDS011;42800;53.928;27.662;2022-09-12T05:22:51;7.25;;;5.05;;
56911;SDS011;42800;53.928;27.662;2022-09-12T05:25:17;8.88;;;5.45;;
56911;SDS011;42800;53.928;27.662;2022-09-12T05:27:43;7.88;;;4.80;;
56911;SDS011;42800;53.928;27.662;2022-09-12T05:30:10;5.70;;;4.75;;
56911;SDS011;42800;53.928;27.662;2022-09-12T05:32:37;7.32;;;4.93;;
56911;SDS011;42800;53.928;27.662;2022-09-12T05:35:04;10.15;;;5.35;;
56911;SDS011;42800;53.928;27.662;2022-09-12T05:37:30;7.55;;;5.30;;
56911;SDS011;42800;53.928;27.662;2022-09-12T05:39:57;6.43;;;5.13;;
56911;SDS011;42800;53.928;27.662;2022-09-12T05:42:23;7.65;;;4.80;;
56911;SDS011;42800;53.928;27.662;2022-09-12T05:44:50;5.65;;;4.75;;
56911;SDS011;42800;53.928;27.662;2022-09-12T05:47:16;5.85;;;5.20;;
56911;SDS011;42800;53.928;27.662;2022-09-12T05:49:43;6.85;;;4.95;;
56911;SDS011;42800;53.928;27.662;2022-09-12T05:52:12;7.00;;;4.78;;
56911;SDS011;42800;53.928;27.662;2022-09-12T05:54:39;5.18;;;4.07;;
56911;SDS011;42800;53.928;27.662;2022-09-12T05:57:05;5.97;;;4.50;;
56911;SDS011;42800;53.928;27.662;2022-09-12T05:59:31;6.88;;;4.85;;
56911;SDS011;42800;53.928;27.662;2022-09-12T06:01:57;7.20;;;4.32;;
56911;SDS011;42800;53.928;27.662;2022-09-12T06:04:24;6.70;;;4.90;;
56911;SDS011;42800;53.928;27.662;2022-09-12T06:06:50;7.60;;;5.13;;
56911;SDS011;42800;53.928;27.662;2022-09-12T06:09:17;9.20;;;4.78;;
56911;SDS011;42800;53.928;27.662;2022-09-12T06:11:44;6.30;;;4.55;;
56911;SDS011;42800;53.928;27.662;2022-09-12T06:14:12;7.93;;;4.63;;
56911;SDS011;42800;53.928;27.662;2022-09-12T06:16:40;13.35;;;5.38;;
56911;SDS011;42800;53.928;27.662;2022-09-12T06:19:10;8.55;;;4.70;;
56911;SDS011;42800;53.928;27.662;2022-09-12T06:21:38;5.47;;;3.92;;
56911;SDS011;42800;53.928;27.662;2022-09-12T06:24:04;7.28;;;4.70;;
56911;SDS011;42800;53.928;27.662;2022-09-12T06:26:32;6.30;;;4.43;;
56911;SDS011;42800;53.928;27.662;2022-09-12T06:28:59;6.13;;;4.43;;
56911;SDS011;42800;53.928;27.662;2022-09-12T06:31:26;8.82;;;5.85;;
56911;SDS011;42800;53.928;27.662;2022-09-12T06:33:54;5.05;;;4.30;;
56911;SDS011;42800;53.928;27.662;2022-09-12T06:36:22;6.05;;;5.03;;
56911;SDS011;42800;53.928;27.662;2022-09-12T06:38:52;5.25;;;4.10;;
56911;SDS011;42800;53.928;27.662;2022-09-12T06:41:19;9.35;;;5.38;;
56911;SDS011;42800;53.928;27.662;2022-09-12T06:43:45;5.28;;;3.88;;
56911;SDS011;42800;53.928;27.662;2022-09-12T06:46:12;7.35;;;4.40;;
56911;SDS011;42800;53.928;27.662;2022-09-12T06:48:38;5.97;;;4.45;;
56911;SDS011;42800;53.928;27.662;2022-09-12T06:51:05;7.13;;;4.88;;
56911;SDS011;42800;53.928;27.662;2022-09-12T06:53:34;10.73;;;4.45;;
56911;SDS011;42800;53.928;27.662;2022-09-12T06:56:01;5.70;;;4.07;;
56911;SDS011;42800;53.928;27.662;2022-09-12T06:58:29;7.95;;;4.65;;
56911;SDS011;42800;53.928;27.662;2022-09-12T07:01:00;4.80;;;4.32;;
56911;SDS011;42800;53.928;27.662;2022-09-12T07:03:27;5.55;;;4.25;;
56911;SDS011;42800;53.928;27.662;2022-09-12T07:05:54;4.82;;;4.30;;
56911;SDS011;42800;53.928;27.662;2022-09-12T07:08:20;8.15;;;5.35;;
56911;SDS011;42800;53.928;27.662;2022-09-12T07:10:46;6.25;;;5.07;;
56911;SDS011;42800;53.928;27.662;2022-09-12T07:13:13;12.18;;;5.80;;
56911;SDS011;42800;53.928;27.662;2022-09-12T07:15:39;5.72;;;5.07;;
56911;SDS011;42800;53.928;27.662;2022-09-12T07:18:06;6.13;;;4.95;;
56911;SDS011;42800;53.928;27.662;2022-09-12T07:20:34;7.40;;;4.97;;
56911;SDS011;42800;53.928;27.662;2022-09-12T07:23:01;6.57;;;4.93;;
56911;SDS011;42800;53.928;27.662;2022-09-12T07:25:27;5.32;;;4.63;;
56911;SDS011;42800;53.928;27.662;2022-09-12T07:27:53;5.93;;;4.93;;
56911;SDS011;42800;53.928;27.662;2022-09-12T07:30:19;9.15;;;4.90;;
56911;SDS011;42800;53.928;27.662;2022-09-12T07:32:50;8.20;;;5.35;;
56911;SDS011;42800;53.928;27.662;2022-09-12T07:35:17;7.72;;;5.25;;
56911;SDS011;42800;53.928;27.662;2022-09-12T07:37:43;8.13;;;5.47;;
56911;SDS011;42800;53.928;27.662;2022-09-12T07:40:10;6.40;;;5.47;;
56911;SDS011;42800;53.928;27.662;2022-09-12T07:42:36;7.32;;;4.82;;
56911;SDS011;42800;53.928;27.662;2022-09-12T07:45:02;7.07;;;5.47;;
56911;SDS011;42800;53.928;27.662;2022-09-12T07:47:29;8.07;;;5.95;;
56911;SDS011;42800;53.928;27.662;2022-09-12T07:49:55;6.40;;;5.50;;
56911;SDS011;42800;53.928;27.662;2022-09-12T07:52:22;5.95;;;5.35;;
56911;SDS011;42800;53.928;27.662;2022-09-12T07:54:48;6.82;;;4.68;;
56911;SDS011;42800;53.928;27.662;2022-09-12T07:57:14;7.05;;;4.90;;
56911;SDS011;42800;53.928;27.662;2022-09-12T07:59:40;4.88;;;4.22;;
56911;SDS011;42800;53.928;27.662;2022-09-12T08:02:09;7.25;;;4.75;;
56911;SDS011;42800;53.928;27.662;2022-09-12T08:04:38;4.88;;;4.32;;
56911;SDS011;42800;53.928;27.662;2022-09-12T08:07:04;7.03;;;4.88;;
56911;SDS011;42800;53.928;27.662;2022-09-12T08:09:31;6.20;;;4.68;;
56911;SDS011;42800;53.928;27.662;2022-09-12T08:11:57;12.10;;;7.00;;
56911;SDS011;42800;53.928;27.662;2022-09-12T08:14:23;8.38;;;6.40;;
56911;SDS011;42800;53.928;27.662;2022-09-12T08:16:50;6.70;;;5.10;;
56911;SDS011;42800;53.928;27.662;2022-09-12T08:19:16;7.95;;;5.95;;
56911;SDS011;42800;53.928;27.662;2022-09-12T08:21:42;5.82;;;5.22;;
56911;SDS011;42800;53.928;27.662;2022-09-12T08:24:09;6.88;;;5.65;;
56911;SDS011;42800;53.928;27.662;2022-09-12T08:26:37;7.50;;;5.63;;
56911;SDS011;42800;53.928;27.662;2022-09-12T08:29:03;10.55;;;5.63;;
56911;SDS011;42800;53.928;27.662;2022-09-12T08:31:30;8.07;;;5.60;;
56911;SDS011;42800;53.928;27.662;2022-09-12T08:34:00;6.20;;;4.72;;
56911;SDS011;42800;53.928;27.662;2022-09-12T08:36:27;5.75;;;3.42;;
56911;SDS011;42800;53.928;27.662;2022-09-12T08:38:54;5.75;;;4.68;;
56911;SDS011;42800;53.928;27.662;2022-09-12T08:41:24;4.75;;;4.22;;
56911;SDS011;42800;53.928;27.662;2022-09-12T08:43:57;6.68;;;3.80;;
56911;SDS011;42800;53.928;27.662;2022-09-12T08:46:42;4.40;;;3.92;;
56911;SDS011;42800;53.928;27.662;2022-09-12T08:49:22;7.75;;;4.00;;
56911;SDS011;42800;53.928;27.662;2022-09-12T08:51:52;6.78;;;3.92;;
56911;SDS011;42800;53.928;27.662;2022-09-12T08:54:22;4.43;;;3.88;;
56911;SDS011;42800;53.928;27.662;2022-09-12T08:56:50;5.32;;;4.05;;
56911;SDS011;42800;53.928;27.662;2022-09-12T08:59:21;3.50;;;3.20;;
56911;SDS011;42800;53.928;27.662;2022-09-12T09:01:48;3.50;;;3.20;;
56911;SDS011;42800;53.928;27.662;2022-09-12T09:04:23;6.38;;;3.25;;
56911;SDS011;42800;53.928;27.662;2022-09-12T09:07:03;5.28;;;3.75;;
56911;SDS011;42800;53.928;27.662;2022-09-12T09:09:50;5.22;;;3.97;;
56911;SDS011;42800;53.928;27.662;2022-09-12T09:12:29;5.15;;;3.92;;
56911;SDS011;42800;53.928;27.662;2022-09-12T09:15:11;5.00;;;4.50;;
56911;SDS011;42800;53.928;27.662;2022-09-12T09:17:46;4.90;;;4.10;;
56911;SDS011;42800;53.928;27.662;2022-09-12T09:20:18;4.88;;;4.03;;
56911;SDS011;42800;53.928;27.662;2022-09-12T09:22:53;6.63;;;3.60;;
56911;SDS011;42800;53.928;27.662;2022-09-12T09:25:24;3.38;;;3.00;;
56911;SDS011;42800;53.928;27.662;2022-09-12T09:27:55;6.53;;;3.40;;
56911;SDS011;42800;53.928;27.662;2022-09-12T09:30:28;3.50;;;3.17;;
56911;SDS011;42800;53.928;27.662;2022-09-12T09:32:55;4.20;;;3.63;;
56911;SDS011;42800;53.928;27.662;2022-09-12T09:35:26;5.60;;;3.80;;
56911;SDS011;42800;53.928;27.662;2022-09-12T09:38:06;4.65;;;3.72;;
56911;SDS011;42800;53.928;27.662;2022-09-12T09:40:43;3.88;;;3.17;;
56911;SDS011;42800;53.928;27.662;2022-09-12T09:43:16;4.43;;;3.20;;
56911;SDS011;42800;53.928;27.662;2022-09-12T09:45:47;3.65;;;3.30;;
56911;SDS011;42800;53.928;27.662;2022-09-12T09:48:16;3.88;;;3.22;;
56911;SDS011;42800;53.928;27.662;2022-09-12T09:50:46;5.00;;;3.47;;
56911;SDS011;42800;53.928;27.662;2022-09-12T09:53:18;3.83;;;3.40;;
56911;SDS011;42800;53.928;27.662;2022-09-12T09:55:51;5.15;;;3.50;;
56911;SDS011;42800;53.928;27.662;2022-09-12T09:58:29;5.47;;;2.97;;
56911;SDS011;42800;53.928;27.662;2022-09-12T10:01:00;4.65;;;3.45;;
56911;SDS011;42800;53.928;27.662;2022-09-12T10:03:29;3.55;;;3.20;;
56911;SDS011;42800;53.928;27.662;2022-09-12T10:05:58;4.75;;;3.45;;
56911;SDS011;42800;53.928;27.662;2022-09-12T10:08:26;6.25;;;3.63;;
56911;SDS011;42800;53.928;27.662;2022-09-12T10:10:55;5.95;;;3.88;;
56911;SDS011;42800;53.928;27.662;2022-09-12T10:13:24;4.85;;;3.53;;
56911;SDS011;42800;53.928;27.662;2022-09-12T10:15:57;4.82;;;3.33;;
56911;SDS011;42800;53.928;27.662;2022-09-12T10:18:32;5.07;;;3.58;;
56911;SDS011;42800;53.928;27.662;2022-09-12T10:21:00;3.95;;;3.47;;
56911;SDS011;42800;53.928;27.662;2022-09-12T10:23:29;3.80;;;3.40;;
56911;SDS011;42800;53.928;27.662;2022-09-12T10:26:02;4.38;;;3.65;;
56911;SDS011;42800;53.928;27.662;2022-09-12T10:28:35;5.53;;;3.50;;
56911;SDS011;42800;53.928;27.662;2022-09-12T10:31:04;5.25;;;3.17;;
56911;SDS011;42800;53.928;27.662;2022-09-12T10:33:34;4.55;;;3.25;;
56911;SDS011;42800;53.928;27.662;2022-09-12T10:36:06;3.85;;;3.00;;
56911;SDS011;42800;53.928;27.662;2022-09-12T10:38:32;7.68;;;3.47;;
56911;SDS011;42800;53.928;27.662;2022-09-12T10:40:59;4.30;;;3.42;;
56911;SDS011;42800;53.928;27.662;2022-09-12T10:43:28;4.95;;;3.08;;
56911;SDS011;42800;53.928;27.662;2022-09-12T10:48:48;3.45;;;2.97;;
56911;SDS011;42800;53.928;27.662;2022-09-12T10:51:25;3.60;;;3.20;;
56911;SDS011;42800;53.928;27.662;2022-09-12T10:53:52;4.78;;;3.00;;
56911;SDS011;42800;53.928;27.662;2022-09-12T10:56:21;4.03;;;3.05;;
56911;SDS011;42800;53.928;27.662;2022-09-12T10:58:54;4.18;;;2.90;;
56911;SDS011;42800;53.928;27.662;2022-09-12T11:01:36;3.08;;;2.78;;
56911;SDS011;42800;53.928;27.662;2022-09-12T11:06:54;3.08;;;2.42;;
56911;SDS011;42800;53.928;27.662;2022-09-12T11:09:33;5.10;;;2.33;;
56911;SDS011;42800;53.928;27.662;2022-09-12T11:12:07;3.03;;;2.40;;
56911;SDS011;42800;53.928;27.662;2022-09-12T11:14:48;5.75;;;2.55;;
56911;SDS011;42800;53.928;27.662;2022-09-12T11:17:24;6.53;;;3.03;;
56911;SDS011;42800;53.928;27.662;2022-09-12T11:23:03;6.40;;;2.78;;
56911;SDS011;42800;53.928;27.662;2022-09-12T11:25:51;3.28;;;2.70;;
56911;SDS011;42800;53.928;27.662;2022-09-12T11:28:27;2.33;;;2.13;;
56911;SDS011;42800;53.928;27.662;2022-09-12T11:34:06;3.03;;;2.20;;
56911;SDS011;42800;53.928;27.662;2022-09-12T11:36:35;2.47;;;2.28;;
56911;SDS011;42800;53.928;27.662;2022-09-12T11:39:11;3.47;;;2.38;;
56911;SDS011;42800;53.928;27.662;2022-09-12T11:41:40;3.17;;;1.98;;
56911;SDS011;42800;53.928;27.662;2022-09-12T11:44:10;3.47;;;2.40;;
56911;SDS011;42800;53.928;27.662;2022-09-12T11:46:41;2.40;;;2.20;;
56911;SDS011;42800;53.928;27.662;2022-09-12T11:49:16;3.90;;;2.55;;
56911;SDS011;42800;53.928;27.662;2022-09-12T11:51:52;5.05;;;2.78;;
56911;SDS011;42800;53.928;27.662;2022-09-12T11:54:25;4.28;;;2.53;;
56911;SDS011;42800;53.928;27.662;2022-09-12T11:56:59;3.85;;;2.63;;
56911;SDS011;42800;53.928;27.662;2022-09-12T11:59:34;5.22;;;2.63;;
56911;SDS011;42800;53.928;27.662;2022-09-12T12:02:10;2.85;;;2.35;;
56911;SDS011;42800;53.928;27.662;2022-09-12T12:04:40;3.20;;;2.40;;
56911;SDS011;42800;53.928;27.662;2022-09-12T12:07:17;3.72;;;2.38;;
56911;SDS011;42800;53.928;27.662;2022-09-12T12:09:44;2.65;;;2.40;;
56911;SDS011;42800;53.928;27.662;2022-09-12T12:12:14;2.33;;;2.13;;
56911;SDS011;42800;53.928;27.662;2022-09-12T12:14:44;2.33;;;2.13;;
56911;SDS011;42800;53.928;27.662;2022-09-12T12:17:14;4.90;;;2.60;;
56911;SDS011;42800;53.928;27.662;2022-09-12T12:19:42;3.25;;;2.83;;
56911;SDS011;42800;53.928;27.662;2022-09-12T12:22:16;3.35;;;3.05;;
56911;SDS011;42800;53.928;27.662;2022-09-12T12:24:53;4.22;;;3.03;;
56911;SDS011;42800;53.928;27.662;2022-09-12T12:36:29;3.17;;;2.70;;
56911;SDS011;42800;53.928;27.662;2022-09-12T12:39:07;2.97;;;2.72;;
56911;SDS011;42800;53.928;27.662;2022-09-12T12:42:09;2.70;;;2.50;;
56911;SDS011;42800;53.928;27.662;2022-09-12T12:44:48;3.67;;;2.80;;
56911;SDS011;42800;53.928;27.662;2022-09-12T12:47:16;3.53;;;2.90;;
56911;SDS011;42800;53.928;27.662;2022-09-12T12:49:48;3.05;;;2.75;;
56911;SDS011;42800;53.928;27.662;2022-09-12T12:52:17;2.90;;;2.60;;
56911;SDS011;42800;53.928;27.662;2022-09-12T12:54:49;3.25;;;2.63;;
56911;SDS011;42800;53.928;27.662;2022-09-12T12:57:25;3.92;;;2.25;;
56911;SDS011;42800;53.928;27.662;2022-09-12T13:00:24;2.83;;;2.22;;
56911;SDS011;42800;53.928;27.662;2022-09-12T13:02:55;2.78;;;2.28;;
56911;SDS011;42800;53.928;27.662;2022-09-12T13:05:24;2.15;;;1.92;;
56911;SDS011;42800;53.928;27.662;2022-09-12T13:07:54;2.20;;;2.00;;
56911;SDS011;42800;53.928;27.662;2022-09-12T13:10:24;3.25;;;2.40;;
56911;SDS011;42800;53.928;27.662;2022-09-12T13:12:53;3.50;;;2.35;;
56911;SDS011;42800;53.928;27.662;2022-09-12T13:15:28;4.40;;;2.40;;
56911;SDS011;42800;53.928;27.662;2022-09-12T13:18:13;3.08;;;2.70;;
56911;SDS011;42800;53.928;27.662;2022-09-12T13:20:44;5.25;;;2.65;;
56911;SDS011;42800;53.928;27.662;2022-09-12T13:23:21;3.75;;;2.25;;
56911;SDS011;42800;53.928;27.662;2022-09-12T13:25:51;4.22;;;2.42;;
56911;SDS011;42800;53.928;27.662;2022-09-12T13:28:18;3.95;;;2.47;;
56911;SDS011;42800;53.928;27.662;2022-09-12T13:30:45;3.28;;;2.08;;
56911;SDS011;42800;53.928;27.662;2022-09-12T13:33:22;3.03;;;2.15;;
56911;SDS011;42800;53.928;27.662;2022-09-12T13:38:32;3.42;;;2.13;;
56911;SDS011;42800;53.928;27.662;2022-09-12T13:41:12;2.50;;;1.92;;
56911;SDS011;42800;53.928;27.662;2022-09-12T13:43:49;2.00;;;1.80;;
56911;SDS011;42800;53.928;27.662;2022-09-12T13:46:20;2.75;;;1.83;;
56911;SDS011;42800;53.928;27.662;2022-09-12T13:48:57;2.10;;;1.90;;
56911;SDS011;42800;53.928;27.662;2022-09-12T13:51:25;2.30;;;1.83;;
56911;SDS011;42800;53.928;27.662;2022-09-12T13:53:55;2.10;;;2.00;;
56911;SDS011;42800;53.928;27.662;2022-09-12T13:56:25;3.42;;;2.20;;
56911;SDS011;42800;53.928;27.662;2022-09-12T13:58:52;3.30;;;2.10;;
56911;SDS011;42800;53.928;27.662;2022-09-12T14:01:23;2.67;;;2.20;;
56911;SDS011;42800;53.928;27.662;2022-09-12T14:03:50;3.45;;;2.28;;
56911;SDS011;42800;53.928;27.662;2022-09-12T14:06:41;2.10;;;1.90;;
56911;SDS011;42800;53.928;27.662;2022-09-12T14:09:11;3.40;;;2.10;;
56911;SDS011;42800;53.928;27.662;2022-09-12T14:11:39;2.25;;;2.10;;
56911;SDS011;42800;53.928;27.662;2022-09-12T14:14:05;2.70;;;1.95;;
56911;SDS011;42800;53.928;27.662;2022-09-12T14:16:45;2.63;;;2.08;;
56911;SDS011;42800;53.928;27.662;2022-09-12T14:19:11;3.00;;;1.92;;
56911;SDS011;42800;53.928;27.662;2022-09-12T14:21:40;2.15;;;2.05;;
56911;SDS011;42800;53.928;27.662;2022-09-12T14:24:08;4.30;;;2.33;;
56911;SDS011;42800;53.928;27.662;2022-09-12T14:26:37;2.92;;;2.63;;
56911;SDS011;42800;53.928;27.662;2022-09-12T14:29:07;3.08;;;2.28;;
56911;SDS011;42800;53.928;27.662;2022-09-12T14:31:35;3.60;;;2.40;;
56911;SDS011;42800;53.928;27.662;2022-09-12T14:34:09;3.00;;;1.92;;
56911;SDS011;42800;53.928;27.662;2022-09-12T14:36:40;2.33;;;2.13;;
56911;SDS011;42800;53.928;27.662;2022-09-12T14:39:20;5.45;;;2.40;;
56911;SDS011;42800;53.928;27.662;2022-09-12T14:41:59;2.47;;;1.92;;
56911;SDS011;42800;53.928;27.662;2022-09-12T14:44:28;2.65;;;2.20;;
56911;SDS011;42800;53.928;27.662;2022-09-12T14:46:56;3.33;;;2.75;;
56911;SDS011;42800;53.928;27.662;2022-09-12T14:49:35;3.80;;;2.58;;
56911;SDS011;42800;53.928;27.662;2022-09-12T14:52:03;8.82;;;2.80;;
56911;SDS011;42800;53.928;27.662;2022-09-12T14:54:35;3.08;;;2.40;;
56911;SDS011;42800;53.928;27.662;2022-09-12T14:57:04;3.50;;;2.58;;
56911;SDS011;42800;53.928;27.662;2022-09-12T14:59:35;5.43;;;2.85;;
56911;SDS011;42800;53.928;27.662;2022-09-12T15:02:17;2.97;;;2.45;;
56911;SDS011;42800;53.928;27.662;2022-09-12T15:04:47;2.88;;;2.58;;
56911;SDS011;42800;53.928;27.662;2022-09-12T15:07:14;2.85;;;2.53;;
56911;SDS011;42800;53.928;27.662;2022-09-12T15:09:41;3.55;;;2.83;;
56911;SDS011;42800;53.928;27.662;2022-09-12T15:12:08;11.23;;;3.67;;
56911;SDS011;42800;53.928;27.662;2022-09-12T15:14:35;4.05;;;2.58;;
56911;SDS011;42800;53.928;27.662;2022-09-12T15:17:01;6.03;;;2.90;;
56911;SDS011;42800;53.928;27.662;2022-09-12T15:19:27;3.40;;;3.10;;
56911;SDS011;42800;53.928;27.662;2022-09-12T15:21:55;4.30;;;3.20;;